Pagina principale
METAR-TAF:

METAR-TAF

Aeroporti :

Aeroporto di Niamey-Diori Hamani

Niamey, Niger

latitudine: 13-29N, longitudine: 002-10E, altezza: 223 m

Osservazione

Il bollettino è stato emesso 20 minuti fa, alle 03:00 UTC
Vento 1 kt da direzioni variabili
Temperature 27°C
Umidità 37%
Pressione 1009 hPa
Visibilità: 6000 m

METAR: DRRN 230300Z VRB01KT 6000 NSC 27/11 Q1009 NOSIG

Ora: 04:20 (03:20 UTC)

Previsione

Il bollettino è stato emesso 4 ore e 20 minuti fa, alle 23:00 UTC
Previsione valida dal 23 alle 00 UTC al 24 alle 24 UTC
Vento 6 kt da sud/sud-est
Visibilità: 8000 m
Temporaneamente
dal 23 alle 06 UTC al 23 alle 12 UTC
Visibilità: 3500 m
polvere diffusa

TAF: DRRN 222300Z 2300/2424 16006KT 8000 NSC TEMPO 2306/2312 3500 DU

Osservazioni e previsioni meteorologiche di più di 4000 aeroporti (messaggi METAR e TAF).

Le stazioni disponibili sono rappresentate dai dischi gialli e rossi sulla carta.

Puntare il mouse per vedere il nome della stazione.

Clicca sopra per visualizzare le osservazioni e previsioni meteorologiche.

Per cambiare la mappa : fare clic sui pulsanti verdi con una croce nera per ingrandire, il pulsante verde con un trattino per diminuire, o sulla freccia verde per le mappe adiacenti.


METAR-TAF: